Time;durP1;ratioP1;P1;durP2;ratioP2;P2;SDS_P1;SDS_P2;PMS_P1;PMS_P2;Temp;Humidity;BMP_temperature;BMP_pressure;BME280_temperature;BME280_humidity;BME280_pressure;Samples;Min_cycle;Max_cycle;Signal;HPM_P1;HPM_P2
2023/05/17 00:02:19;;;;;;;;;;;9.70;99.90;;;;;;5063422;28;20425;-83
2023/05/17 00:04:46;;;;;;;;;;;9.70;99.90;;;;;;5082692;28;19935;-83
2023/05/17 00:07:13;;;;;;;;;;;9.70;99.90;;;;;;5082322;28;19928;-82
2023/05/17 00:09:40;;;;;;;;;;;9.60;99.90;;;;;;5085303;28;20035;-83
2023/05/17 00:12:07;;;;;;;;;;;9.70;99.90;;;;;;5067071;28;19932;-82
2023/05/17 00:14:34;;;;;;;;;;;9.60;99.90;;;;;;5083366;28;19924;-83
2023/05/17 00:17:01;;;;;;;;;;;9.50;99.90;;;;;;5066673;28;19924;-83
2023/05/17 00:19:28;;;;;;;;;;;9.50;99.90;;;;;;5083334;28;20025;-83
2023/05/17 00:21:54;;;;;;;;;;;9.50;99.90;;;;;;5065436;28;19924;-83
2023/05/17 00:24:21;;;;;;;;;;;9.50;99.90;;;;;;5063703;28;19986;-82
2023/05/17 00:26:48;;;;;;;;;;;9.50;99.90;;;;;;5079335;28;20402;-82
2023/05/17 00:29:15;;;;;;;;;;;9.50;99.90;;;;;;5081836;28;20385;-82
2023/05/17 00:31:42;;;;;;;;;;;9.40;99.90;;;;;;5066573;28;20012;-83
2023/05/17 00:34:08;;;;;;;;;;;9.40;99.90;;;;;;5082068;28;19958;-82
2023/05/17 00:36:35;;;;;;;;;;;9.40;99.90;;;;;;5087115;28;20023;-82
2023/05/17 00:39:02;;;;;;;;;;;9.40;99.90;;;;;;5086486;28;20003;-82
2023/05/17 00:41:29;;;;;;;;;;;9.40;99.90;;;;;;5086205;28;20295;-83
2023/05/17 00:43:56;;;;;;;;;;;9.30;99.90;;;;;;5065556;28;20027;-83
2023/05/17 00:46:22;;;;;;;;;;;9.20;99.90;;;;;;5049974;28;19978;-83
2023/05/17 00:48:49;;;;;;;;;;;9.20;99.90;;;;;;5065391;28;19925;-83
2023/05/17 00:51:16;;;;;;;;;;;9.20;99.90;;;;;;5049639;28;19932;-81
2023/05/17 00:53:43;;;;;;;;;;;9.20;99.90;;;;;;5057869;28;19935;-82
2023/05/17 00:56:09;;;;;;;;;;;9.20;99.90;;;;;;5070040;28;19989;-82
2023/05/17 00:58:36;;;;;;;;;;;9.20;99.90;;;;;;5086665;28;19932;-82
2023/05/17 01:01:03;;;;;;;;;;;9.10;99.90;;;;;;5087180;28;20465;-82
2023/05/17 01:03:30;;;;;;;;;;;9.10;99.90;;;;;;5082645;28;20002;-82
2023/05/17 01:05:56;;;;;;;;;;;9.10;99.90;;;;;;5083243;28;19924;-81
2023/05/17 01:08:23;;;;;;;;;;;9.00;99.90;;;;;;5084951;28;19924;-82
2023/05/17 01:10:50;;;;;;;;;;;9.00;99.90;;;;;;5086211;28;19924;-82
2023/05/17 01:13:25;;;;;;;;;;;9.00;99.90;;;;;;5086400;28;20508;-82
2023/05/17 01:16:06;;;;;;;;;;;9.00;99.90;;;;;;5049069;28;19975;-82
2023/05/17 01:18:36;;;;;;;;;;;8.90;99.90;;;;;;5065012;28;19944;-82
2023/05/17 01:21:03;;;;;;;;;;;8.90;99.90;;;;;;5066998;28;19971;-84
2023/05/17 01:23:29;;;;;;;;;;;8.80;99.90;;;;;;5083821;28;19928;-81
2023/05/17 01:25:56;;;;;;;;;;;8.80;99.90;;;;;;5081966;28;19928;-82
2023/05/17 01:28:23;;;;;;;;;;;8.80;99.90;;;;;;5078019;28;19924;-82
2023/05/17 01:30:50;;;;;;;;;;;8.80;99.90;;;;;;5077867;28;19932;-82
2023/05/17 01:33:17;;;;;;;;;;;8.80;99.90;;;;;;5052152;28;20007;-83
2023/05/17 01:35:44;;;;;;;;;;;8.70;99.90;;;;;;5082489;28;19924;-82
2023/05/17 01:38:11;;;;;;;;;;;8.70;99.90;;;;;;5081300;28;19979;-82
2023/05/17 01:40:44;;;;;;;;;;;8.60;99.90;;;;;;5088031;28;19967;-82
2023/05/17 01:43:22;;;;;;;;;;;8.60;99.90;;;;;;5059561;28;20001;-83
2023/05/17 01:46:11;;;;;;;;;;;8.60;99.90;;;;;;5086215;28;20394;-81
2023/05/17 01:48:39;;;;;;;;;;;8.60;99.90;;;;;;5067501;28;20018;-82
2023/05/17 01:51:06;;;;;;;;;;;8.60;99.90;;;;;;5049901;28;19928;-83
2023/05/17 01:53:41;;;;;;;;;;;8.60;99.90;;;;;;5071266;28;19978;-81
2023/05/17 01:56:09;;;;;;;;;;;8.60;99.90;;;;;;5087187;28;19928;-82
2023/05/17 01:58:38;;;;;;;;;;;8.60;99.90;;;;;;5087544;28;20372;-83
2023/05/17 02:01:05;;;;;;;;;;;8.60;99.90;;;;;;5087233;28;20018;-83
2023/05/17 02:03:32;;;;;;;;;;;8.50;99.90;;;;;;5086770;28;19924;-83
2023/05/17 02:05:59;;;;;;;;;;;8.50;99.90;;;;;;5086411;28;19928;-83
2023/05/17 02:08:26;;;;;;;;;;;8.50;99.90;;;;;;5085160;28;20654;-84
2023/05/17 02:10:52;;;;;;;;;;;8.40;99.90;;;;;;5070020;28;19924;-83
2023/05/17 02:13:20;;;;;;;;;;;8.40;99.90;;;;;;5085641;28;19924;-83
2023/05/17 02:15:46;;;;;;;;;;;8.30;99.90;;;;;;5069933;28;19930;-83
2023/05/17 02:18:13;;;;;;;;;;;8.30;99.90;;;;;;5069265;28;19924;-84
2023/05/17 02:20:40;;;;;;;;;;;8.30;99.90;;;;;;5086994;28;19977;-84
2023/05/17 02:23:07;;;;;;;;;;;8.30;99.90;;;;;;5085264;28;20597;-84
2023/05/17 02:25:33;;;;;;;;;;;8.30;99.90;;;;;;5086186;28;19971;-83
2023/05/17 02:28:00;;;;;;;;;;;8.30;99.90;;;;;;5065675;28;19929;-82
2023/05/17 02:30:27;;;;;;;;;;;8.30;99.90;;;;;;5076088;28;19928;-83
2023/05/17 02:32:55;;;;;;;;;;;8.10;99.90;;;;;;5068541;28;19932;-83
2023/05/17 02:35:22;;;;;;;;;;;8.10;99.90;;;;;;5085171;28;20484;-83
2023/05/17 02:37:49;;;;;;;;;;;8.00;99.90;;;;;;5065081;28;19940;-82
2023/05/17 02:40:16;;;;;;;;;;;8.00;99.90;;;;;;5085013;28;20008;-83
2023/05/17 02:42:42;;;;;;;;;;;8.10;99.90;;;;;;5082149;28;19964;-82
2023/05/17 02:45:09;;;;;;;;;;;8.10;99.90;;;;;;5065416;28;20015;-83
2023/05/17 02:47:37;;;;;;;;;;;8.10;99.90;;;;;;5094643;28;19946;-83
2023/05/17 02:50:05;;;;;;;;;;;8.00;99.90;;;;;;5049549;28;20011;-83
2023/05/17 02:52:32;;;;;;;;;;;8.00;99.90;;;;;;5085009;28;19994;-83
2023/05/17 02:54:59;;;;;;;;;;;8.00;99.90;;;;;;5084322;28;19938;-83
2023/05/17 02:57:25;;;;;;;;;;;8.00;99.90;;;;;;5064130;28;19971;-83
2023/05/17 02:59:52;;;;;;;;;;;8.00;99.90;;;;;;5058638;28;19932;-83
2023/05/17 03:02:19;;;;;;;;;;;8.00;99.90;;;;;;5063692;28;19928;-83
2023/05/17 03:04:46;;;;;;;;;;;8.00;99.90;;;;;;5085062;28;20475;-83
2023/05/17 03:07:12;;;;;;;;;;;7.90;99.90;;;;;;5084570;28;19931;-83
2023/05/17 03:09:40;;;;;;;;;;;7.80;99.90;;;;;;5066526;28;20007;-83
2023/05/17 03:12:08;;;;;;;;;;;7.80;99.90;;;;;;5084397;28;19932;-83
2023/05/17 03:14:34;;;;;;;;;;;7.80;99.90;;;;;;5067737;28;19924;-83
2023/05/17 03:17:01;;;;;;;;;;;7.80;99.90;;;;;;5084644;28;19928;-83
2023/05/17 03:19:28;;;;;;;;;;;7.80;99.90;;;;;;5067728;28;20681;-82
2023/05/17 03:21:55;;;;;;;;;;;7.70;99.90;;;;;;5082909;28;19989;-83
2023/05/17 03:24:22;;;;;;;;;;;7.70;99.90;;;;;;5083150;28;20487;-83
2023/05/17 03:26:48;;;;;;;;;;;7.70;99.90;;;;;;5063762;28;19977;-82
2023/05/17 03:29:15;;;;;;;;;;;7.70;99.90;;;;;;5084198;28;20019;-83
2023/05/17 03:31:42;;;;;;;;;;;7.70;99.90;;;;;;5065821;28;20007;-83
2023/05/17 03:34:09;;;;;;;;;;;7.60;99.90;;;;;;5061887;28;19954;-83
2023/05/17 03:36:38;;;;;;;;;;;7.70;99.90;;;;;;5054026;28;19931;-83
2023/05/17 03:39:04;;;;;;;;;;;7.70;99.90;;;;;;5062095;28;20367;-83
2023/05/17 03:41:31;;;;;;;;;;;7.60;99.90;;;;;;5085172;28;19939;-83
2023/05/17 03:43:58;;;;;;;;;;;7.60;99.90;;;;;;5064932;28;19929;-83
2023/05/17 03:46:25;;;;;;;;;;;7.60;99.90;;;;;;5083627;28;19944;-83
2023/05/17 03:48:51;;;;;;;;;;;7.60;99.90;;;;;;5080029;28;19981;-82
2023/05/17 03:51:18;;;;;;;;;;;7.60;99.90;;;;;;5064255;28;20655;-82
2023/05/17 03:53:45;;;;;;;;;;;7.60;99.90;;;;;;5057334;28;19946;-83
2023/05/17 03:56:11;;;;;;;;;;;7.50;99.90;;;;;;5083727;28;19924;-83
2023/05/17 03:58:38;;;;;;;;;;;7.50;99.90;;;;;;5083900;28;19932;-82
2023/05/17 04:01:05;;;;;;;;;;;7.40;99.90;;;;;;5064995;28;19932;-82
2023/05/17 04:03:32;;;;;;;;;;;7.40;99.90;;;;;;5084496;28;19928;-83
2023/05/17 04:06:05;;;;;;;;;;;7.40;99.90;;;;;;5062735;28;19978;-83
2023/05/17 04:08:32;;;;;;;;;;;7.50;99.90;;;;;;5078767;28;19989;-84
2023/05/17 04:11:08;;;;;;;;;;;7.50;99.90;;;;;;5086308;28;19987;-84
2023/05/17 04:13:38;;;;;;;;;;;7.50;99.90;;;;;;5072502;28;20305;-83
2023/05/17 04:16:06;;;;;;;;;;;7.50;99.90;;;;;;5067075;28;20445;-83
2023/05/17 04:18:33;;;;;;;;;;;7.50;99.90;;;;;;5089536;28;19931;-84
2023/05/17 04:21:00;;;;;;;;;;;7.50;99.90;;;;;;5088805;28;19924;-83
2023/05/17 04:23:28;;;;;;;;;;;7.50;99.90;;;;;;5068861;28;20380;-83
2023/05/17 04:25:56;;;;;;;;;;;7.50;99.90;;;;;;5089601;28;19923;-83
2023/05/17 04:28:23;;;;;;;;;;;7.60;99.90;;;;;;5067636;28;19931;-83
2023/05/17 04:30:51;;;;;;;;;;;7.50;99.90;;;;;;5082394;28;19972;-84
2023/05/17 04:33:17;;;;;;;;;;;7.60;99.90;;;;;;5067780;28;19925;-82
2023/05/17 04:35:44;;;;;;;;;;;7.60;99.90;;;;;;5088341;28;19931;-83
2023/05/17 04:38:11;;;;;;;;;;;7.60;99.90;;;;;;5086878;28;19972;-82
2023/05/17 04:40:38;;;;;;;;;;;7.60;99.90;;;;;;5072201;28;19924;-83
2023/05/17 04:43:04;;;;;;;;;;;7.60;99.90;;;;;;5070722;28;20005;-84
2023/05/17 04:45:32;;;;;;;;;;;7.60;99.90;;;;;;5071606;28;19931;-82
2023/05/17 04:47:59;;;;;;;;;;;7.70;99.90;;;;;;5083926;28;20410;-83
2023/05/17 04:50:26;;;;;;;;;;;7.70;99.90;;;;;;5065340;28;19929;-83
2023/05/17 04:52:53;;;;;;;;;;;7.80;99.90;;;;;;5061359;28;19928;-81
2023/05/17 04:55:20;;;;;;;;;;;7.80;99.90;;;;;;5067444;28;20314;-84
2023/05/17 04:57:47;;;;;;;;;;;7.70;99.90;;;;;;5083354;28;19924;-82
2023/05/17 05:00:14;;;;;;;;;;;7.80;99.90;;;;;;5066860;28;19985;-82
2023/05/17 05:02:41;;;;;;;;;;;7.90;99.90;;;;;;5080912;28;19963;-82
2023/05/17 05:05:08;;;;;;;;;;;7.90;99.90;;;;;;5081762;28;19928;-83
2023/05/17 05:07:36;;;;;;;;;;;8.00;99.90;;;;;;5078592;28;19938;-84
2023/05/17 05:10:03;;;;;;;;;;;8.10;99.90;;;;;;5077621;28;20590;-83
2023/05/17 05:12:30;;;;;;;;;;;8.20;99.90;;;;;;5070519;28;19935;-82
2023/05/17 05:14:57;;;;;;;;;;;8.20;99.90;;;;;;5062165;28;19931;-81
2023/05/17 05:17:26;;;;;;;;;;;8.30;99.90;;;;;;5079048;28;20235;-82
2023/05/17 05:19:53;;;;;;;;;;;8.40;99.90;;;;;;5061610;28;20022;-81
2023/05/17 05:22:20;;;;;;;;;;;8.40;99.90;;;;;;5079049;28;20039;-82
2023/05/17 05:24:47;;;;;;;;;;;8.50;99.90;;;;;;5078044;28;19944;-83
2023/05/17 05:27:14;;;;;;;;;;;8.50;99.90;;;;;;5078721;28;19984;-82
2023/05/17 05:29:41;;;;;;;;;;;8.60;99.90;;;;;;5080816;28;20237;-83
2023/05/17 05:32:08;;;;;;;;;;;8.70;99.90;;;;;;5078874;28;20030;-84
2023/05/17 05:34:34;;;;;;;;;;;8.70;99.90;;;;;;5062826;28;19924;-82
2023/05/17 05:37:01;;;;;;;;;;;8.80;99.90;;;;;;5073030;28;20034;-82
2023/05/17 05:39:28;;;;;;;;;;;8.90;99.90;;;;;;5074742;28;19958;-81
2023/05/17 05:41:54;;;;;;;;;;;9.00;99.90;;;;;;5072676;28;20480;-82
2023/05/17 05:44:21;;;;;;;;;;;9.00;99.90;;;;;;5066888;28;19934;-81
2023/05/17 05:46:51;;;;;;;;;;;9.10;99.90;;;;;;5051007;28;20454;-82
2023/05/17 05:49:18;;;;;;;;;;;9.20;99.90;;;;;;5068440;28;19928;-82
2023/05/17 05:51:45;;;;;;;;;;;9.30;99.90;;;;;;5074107;28;19928;-82
2023/05/17 05:54:12;;;;;;;;;;;9.40;99.90;;;;;;5074203;28;19928;-81
2023/05/17 05:56:38;;;;;;;;;;;9.50;99.90;;;;;;5090456;28;20054;-81
2023/05/17 05:59:05;;;;;;;;;;;9.60;99.90;;;;;;5075909;28;20001;-83
2023/05/17 06:01:32;;;;;;;;;;;9.70;99.90;;;;;;5055194;28;19928;-83
2023/05/17 06:03:59;;;;;;;;;;;9.80;99.90;;;;;;5071021;28;19939;-83
2023/05/17 06:06:26;;;;;;;;;;;9.90;99.90;;;;;;5072013;28;20036;-82
2023/05/17 06:08:53;;;;;;;;;;;10.00;99.90;;;;;;5064976;28;19928;-81
2023/05/17 06:11:23;;;;;;;;;;;10.10;99.90;;;;;;5059778;28;20482;-80
2023/05/17 06:13:50;;;;;;;;;;;10.10;99.90;;;;;;5075220;28;19936;-83
2023/05/17 06:16:17;;;;;;;;;;;10.20;99.90;;;;;;5077759;28;20252;-83
2023/05/17 06:18:44;;;;;;;;;;;10.30;99.90;;;;;;5059658;28;19977;-83
2023/05/17 06:21:14;;;;;;;;;;;10.30;99.90;;;;;;5076871;28;20658;-83
2023/05/17 06:23:41;;;;;;;;;;;10.40;99.90;;;;;;5057189;28;20522;-83
2023/05/17 06:26:09;;;;;;;;;;;10.40;99.90;;;;;;5073260;28;20383;-82
2023/05/17 06:28:36;;;;;;;;;;;10.40;99.90;;;;;;5071919;28;19924;-82
2023/05/17 06:31:03;;;;;;;;;;;10.50;99.90;;;;;;5076019;28;19935;-83
2023/05/17 06:33:30;;;;;;;;;;;10.50;99.90;;;;;;5075901;28;19928;-83
2023/05/17 06:35:57;;;;;;;;;;;10.60;99.90;;;;;;5071149;28;20307;-82
2023/05/17 06:38:24;;;;;;;;;;;10.70;99.90;;;;;;5052676;28;20009;-83
2023/05/17 06:40:52;;;;;;;;;;;10.70;99.90;;;;;;5077980;28;19928;-82
2023/05/17 06:43:19;;;;;;;;;;;10.70;99.90;;;;;;5075648;28;20087;-82
2023/05/17 06:45:46;;;;;;;;;;;10.80;99.90;;;;;;5077021;28;20127;-83
2023/05/17 06:48:13;;;;;;;;;;;10.90;99.90;;;;;;5078424;28;19935;-83
2023/05/17 06:50:40;;;;;;;;;;;10.90;99.90;;;;;;5067802;28;20032;-83
2023/05/17 06:53:07;;;;;;;;;;;11.00;99.90;;;;;;5067985;28;19929;-82
2023/05/17 06:55:33;;;;;;;;;;;11.10;99.90;;;;;;5075014;28;19927;-82
2023/05/17 06:58:00;;;;;;;;;;;11.10;99.90;;;;;;5074478;28;19940;-83
2023/05/17 07:00:28;;;;;;;;;;;11.20;99.90;;;;;;5070749;28;20463;-82
2023/05/17 07:02:55;;;;;;;;;;;11.30;99.90;;;;;;5079538;28;19932;-82
2023/05/17 07:05:23;;;;;;;;;;;11.30;99.90;;;;;;5069001;28;19993;-83
2023/05/17 07:07:49;;;;;;;;;;;11.40;99.90;;;;;;5051451;28;20006;-81
2023/05/17 07:10:16;;;;;;;;;;;11.40;99.90;;;;;;5068815;28;20645;-82
2023/05/17 07:12:43;;;;;;;;;;;11.50;99.90;;;;;;5074030;28;20493;-82
2023/05/17 07:15:10;;;;;;;;;;;11.50;99.90;;;;;;5055599;28;19985;-82
2023/05/17 07:17:37;;;;;;;;;;;11.60;99.90;;;;;;5074065;28;19956;-82
2023/05/17 07:20:04;;;;;;;;;;;11.60;99.90;;;;;;5058195;28;19928;-82
2023/05/17 07:22:33;;;;;;;;;;;11.60;99.90;;;;;;5061520;28;19935;-83
2023/05/17 07:25:00;;;;;;;;;;;11.70;99.90;;;;;;5072191;28;20145;-81
2023/05/17 07:27:27;;;;;;;;;;;11.80;99.90;;;;;;5075846;28;19965;-81
2023/05/17 07:29:54;;;;;;;;;;;11.90;99.90;;;;;;5054770;28;19924;-81
2023/05/17 07:32:21;;;;;;;;;;;12.00;99.90;;;;;;5052676;28;19968;-81
2023/05/17 07:34:47;;;;;;;;;;;12.00;99.90;;;;;;5057274;28;19924;-81
2023/05/17 07:37:14;;;;;;;;;;;12.10;99.90;;;;;;5074671;28;19948;-81
2023/05/17 07:39:42;;;;;;;;;;;12.10;99.90;;;;;;5075025;28;20112;-81
2023/05/17 07:42:09;;;;;;;;;;;12.20;99.90;;;;;;5070470;28;19935;-81
2023/05/17 07:44:35;;;;;;;;;;;12.20;99.90;;;;;;5082849;28;19935;-81
2023/05/17 07:47:02;;;;;;;;;;;12.30;99.90;;;;;;5076569;28;19932;-81
2023/05/17 07:49:29;;;;;;;;;;;12.30;99.90;;;;;;5073092;28;20334;-82
2023/05/17 07:51:56;;;;;;;;;;;12.40;99.90;;;;;;5075544;28;19971;-81
2023/05/17 07:54:24;;;;;;;;;;;12.40;99.90;;;;;;5076130;28;19928;-81
2023/05/17 07:56:52;;;;;;;;;;;12.50;99.90;;;;;;5076216;28;20332;-81
2023/05/17 07:59:19;;;;;;;;;;;12.60;99.90;;;;;;5073105;28;19932;-81
2023/05/17 08:01:45;;;;;;;;;;;12.60;99.90;;;;;;5075104;28;19935;-80
2023/05/17 08:04:14;;;;;;;;;;;12.70;99.90;;;;;;5053394;28;20746;-81
2023/05/17 08:06:41;;;;;;;;;;;12.70;99.90;;;;;;5071911;28;20336;-81
2023/05/17 08:09:09;;;;;;;;;;;12.80;99.90;;;;;;5075974;28;19962;-82
2023/05/17 08:11:36;;;;;;;;;;;12.80;99.90;;;;;;5068007;28;19944;-81
2023/05/17 08:14:04;;;;;;;;;;;12.90;99.90;;;;;;5068554;28;20782;-81
2023/05/17 08:16:30;;;;;;;;;;;13.00;99.90;;;;;;5077373;28;19935;-82
2023/05/17 08:18:57;;;;;;;;;;;13.10;99.90;;;;;;5072834;28;19928;-82
2023/05/17 08:21:24;;;;;;;;;;;13.20;99.90;;;;;;5075217;28;20054;-81
2023/05/17 08:23:51;;;;;;;;;;;13.30;99.90;;;;;;5074074;28;19924;-81
2023/05/17 08:26:20;;;;;;;;;;;13.40;99.90;;;;;;5074931;28;19928;-81
2023/05/17 08:28:47;;;;;;;;;;;13.50;99.90;;;;;;5075910;28;19928;-82
2023/05/17 08:31:14;;;;;;;;;;;13.70;99.90;;;;;;5081169;28;19979;-81
2023/05/17 08:33:41;;;;;;;;;;;13.80;99.90;;;;;;5074949;28;19961;-81
2023/05/17 08:36:08;;;;;;;;;;;13.90;99.90;;;;;;5075212;28;20001;-81
2023/05/17 08:38:36;;;;;;;;;;;13.90;99.90;;;;;;5075266;28;19928;-81
2023/05/17 08:41:02;;;;;;;;;;;14.00;99.90;;;;;;5076044;28;19928;-81
2023/05/17 08:43:30;;;;;;;;;;;14.10;99.90;;;;;;5076154;28;19943;-82
2023/05/17 08:45:58;;;;;;;;;;;14.20;99.90;;;;;;5074566;28;19944;-81
2023/05/17 08:48:25;;;;;;;;;;;14.30;99.90;;;;;;5054066;28;19924;-82
2023/05/17 08:50:53;;;;;;;;;;;14.40;99.90;;;;;;5075713;28;19932;-81
2023/05/17 08:53:20;;;;;;;;;;;14.50;99.90;;;;;;5080336;28;19932;-79
2023/05/17 08:55:47;;;;;;;;;;;14.50;99.90;;;;;;5077349;28;19924;-79
2023/05/17 08:58:15;;;;;;;;;;;14.60;99.90;;;;;;5087094;28;20093;-79
2023/05/17 09:00:42;;;;;;;;;;;14.60;99.90;;;;;;5072405;28;20081;-79
2023/05/17 09:03:09;;;;;;;;;;;14.70;99.90;;;;;;5085485;28;20069;-79
2023/05/17 09:05:38;;;;;;;;;;;14.80;99.90;;;;;;5078820;28;19924;-79
2023/05/17 09:08:04;;;;;;;;;;;14.90;99.90;;;;;;5078685;28;19935;-79
2023/05/17 09:10:31;;;;;;;;;;;14.90;99.90;;;;;;5093050;28;20075;-78
2023/05/17 09:12:58;;;;;;;;;;;14.90;99.90;;;;;;5082511;28;19932;-79
2023/05/17 09:15:25;;;;;;;;;;;14.90;99.90;;;;;;5079183;28;19936;-79
2023/05/17 09:17:52;;;;;;;;;;;14.90;99.90;;;;;;5060956;28;19968;-79
2023/05/17 09:20:23;;;;;;;;;;;15.00;99.90;;;;;;5072266;28;20272;-79
2023/05/17 09:22:50;;;;;;;;;;;15.20;99.90;;;;;;5080931;28;20459;-80
2023/05/17 09:25:22;;;;;;;;;;;15.30;99.90;;;;;;5081982;28;19946;-79
2023/05/17 09:27:52;;;;;;;;;;;15.40;99.90;;;;;;5080882;28;20315;-79
2023/05/17 09:30:25;;;;;;;;;;;15.60;99.90;;;;;;5065340;28;19925;-79
2023/05/17 09:32:52;;;;;;;;;;;15.70;99.90;;;;;;5083875;28;19924;-79
2023/05/17 09:35:32;;;;;;;;;;;15.80;99.90;;;;;;5082328;28;20225;-79
2023/05/17 09:38:13;;;;;;;;;;;15.80;99.90;;;;;;5077721;28;20456;-79
2023/05/17 09:40:41;;;;;;;;;;;15.80;99.90;;;;;;5082512;28;19936;-79
2023/05/17 09:43:07;;;;;;;;;;;15.90;99.90;;;;;;5078988;28;20000;-79
2023/05/17 09:45:35;;;;;;;;;;;16.20;99.90;;;;;;5076162;28;20000;-80
2023/05/17 09:48:14;;;;;;;;;;;16.30;99.90;;;;;;5079913;28;19928;-78
2023/05/17 09:50:51;;;;;;;;;;;16.30;99.90;;;;;;5079903;28;20289;-78
2023/05/17 09:53:38;;;;;;;;;;;16.50;99.90;;;;;;5073773;28;20693;-79
2023/05/17 09:56:05;;;;;;;;;;;16.70;99.90;;;;;;5061853;28;20597;-81
2023/05/17 09:58:32;;;;;;;;;;;16.80;99.90;;;;;;5076126;28;20000;-78
2023/05/17 10:01:00;;;;;;;;;;;17.00;99.90;;;;;;5081032;28;20791;-78
2023/05/17 10:03:29;;;;;;;;;;;17.20;99.90;;;;;;5079081;28;20316;-78
2023/05/17 10:05:56;;;;;;;;;;;17.50;99.90;;;;;;5078482;28;20415;-78
2023/05/17 10:08:24;;;;;;;;;;;17.60;99.90;;;;;;5088240;28;19927;-78
2023/05/17 10:10:55;;;;;;;;;;;17.90;99.90;;;;;;5074885;28;19940;-78
2023/05/17 10:13:23;;;;;;;;;;;18.40;99.90;;;;;;5077655;28;19966;-78
2023/05/17 10:15:50;;;;;;;;;;;18.50;99.90;;;;;;5064087;28;19924;-78
2023/05/17 10:18:17;;;;;;;;;;;18.30;99.90;;;;;;5079880;28;19969;-79
2023/05/17 10:20:44;;;;;;;;;;;18.00;99.90;;;;;;5079079;28;19935;-78
2023/05/17 10:23:10;;;;;;;;;;;18.00;99.90;;;;;;5078373;28;19935;-80
2023/05/17 10:25:37;;;;;;;;;;;18.10;99.90;;;;;;5078621;28;19969;-78
2023/05/17 10:28:06;;;;;;;;;;;18.20;99.40;;;;;;5079139;28;20460;-77
2023/05/17 10:30:33;;;;;;;;;;;18.40;98.80;;;;;;5080626;28;19928;-77
2023/05/17 10:33:00;;;;;;;;;;;18.60;98.90;;;;;;5079858;28;19931;-79
2023/05/17 10:35:27;;;;;;;;;;;18.80;98.80;;;;;;5073737;28;19932;-78
2023/05/17 10:37:54;;;;;;;;;;;19.00;99.40;;;;;;5077677;28;20403;-78
2023/05/17 10:40:22;;;;;;;;;;;19.00;98.10;;;;;;5060070;28;19932;-79
2023/05/17 10:42:52;;;;;;;;;;;18.90;98.30;;;;;;5065790;28;20412;-78
2023/05/17 10:45:19;;;;;;;;;;;18.70;98.50;;;;;;5078855;28;20067;-78
2023/05/17 10:47:47;;;;;;;;;;;18.60;98.10;;;;;;5081408;28;19931;-78
2023/05/17 10:50:15;;;;;;;;;;;18.70;98.00;;;;;;5059737;28;19990;-79
2023/05/17 10:52:45;;;;;;;;;;;19.10;97.80;;;;;;5064794;28;19960;-78
2023/05/17 10:55:12;;;;;;;;;;;19.20;97.20;;;;;;5078958;28;20740;-78
2023/05/17 10:57:40;;;;;;;;;;;19.00;96.80;;;;;;5079928;28;20385;-78
2023/05/17 11:00:11;;;;;;;;;;;19.00;97.00;;;;;;5079903;28;19972;-79
2023/05/17 11:02:43;;;;;;;;;;;19.20;97.50;;;;;;5079422;28;20007;-79
2023/05/17 11:05:22;;;;;;;;;;;19.40;96.90;;;;;;5078826;28;20053;-78
2023/05/17 11:07:49;;;;;;;;;;;19.60;97.10;;;;;;5078214;28;20010;-79
2023/05/17 11:10:17;;;;;;;;;;;19.70;96.30;;;;;;5079198;28;19928;-78
2023/05/17 11:12:45;;;;;;;;;;;20.10;95.80;;;;;;5078589;28;20405;-78
2023/05/17 11:15:13;;;;;;;;;;;20.40;96.80;;;;;;5075694;28;19928;-78
2023/05/17 11:17:42;;;;;;;;;;;20.30;95.90;;;;;;5091798;28;20354;-81
2023/05/17 11:20:25;;;;;;;;;;;20.20;95.30;;;;;;5086313;28;20088;-82
2023/05/17 11:22:59;;;;;;;;;;;20.10;95.40;;;;;;5079419;28;19924;-81
2023/05/17 11:25:27;;;;;;;;;;;20.00;96.10;;;;;;5087545;28;20385;-81
2023/05/17 11:27:54;;;;;;;;;;;19.90;95.70;;;;;;5059960;28;20342;-82
2023/05/17 11:30:22;;;;;;;;;;;20.10;94.60;;;;;;5076816;28;20157;-82
2023/05/17 11:32:52;;;;;;;;;;;20.70;94.00;;;;;;5072119;28;19935;-83
2023/05/17 11:35:22;;;;;;;;;;;20.80;93.80;;;;;;5079635;28;20007;-82
2023/05/17 11:37:50;;;;;;;;;;;21.00;93.60;;;;;;5078209;28;20679;-82
2023/05/17 11:40:24;;;;;;;;;;;20.70;93.20;;;;;;5084337;28;20322;-82
2023/05/17 11:43:08;;;;;;;;;;;20.60;92.70;;;;;;5072239;28;19953;-82
2023/05/17 11:45:54;;;;;;;;;;;20.60;93.90;;;;;;5080001;28;20027;-81
2023/05/17 11:48:21;;;;;;;;;;;20.20;93.80;;;;;;5079540;28;20335;-82
2023/05/17 11:50:49;;;;;;;;;;;19.70;93.50;;;;;;5077782;28;19970;-81
2023/05/17 11:53:15;;;;;;;;;;;19.20;94.60;;;;;;5075592;28;20410;-81
2023/05/17 11:55:43;;;;;;;;;;;19.00;94.70;;;;;;5079221;28;19963;-81
2023/05/17 11:58:10;;;;;;;;;;;18.70;94.20;;;;;;5080714;28;20273;-80
2023/05/17 12:00:39;;;;;;;;;;;18.50;95.20;;;;;;5059243;28;19928;-81
2023/05/17 12:03:18;;;;;;;;;;;18.30;94.50;;;;;;5080641;28;19971;-81
2023/05/17 12:05:45;;;;;;;;;;;18.30;95.40;;;;;;5077304;28;19928;-81
2023/05/17 12:08:14;;;;;;;;;;;18.20;96.50;;;;;;5077934;28;20514;-81
2023/05/17 12:10:45;;;;;;;;;;;18.10;95.40;;;;;;5077170;28;19936;-81
2023/05/17 12:13:11;;;;;;;;;;;18.20;95.50;;;;;;5069969;28;20040;-81
2023/05/17 12:15:39;;;;;;;;;;;18.20;95.10;;;;;;5073378;28;19943;-82
2023/05/17 12:18:06;;;;;;;;;;;18.10;95.10;;;;;;5061829;28;19955;-81
2023/05/17 12:20:34;;;;;;;;;;;18.20;94.90;;;;;;5056142;28;19931;-81
2023/05/17 12:23:00;;;;;;;;;;;18.20;95.00;;;;;;5065659;28;19939;-81
2023/05/17 12:25:28;;;;;;;;;;;18.30;95.50;;;;;;5061530;28;20637;-80
2023/05/17 12:28:14;;;;;;;;;;;18.30;95.80;;;;;;5051359;28;19929;-80
2023/05/17 12:30:40;;;;;;;;;;;18.30;95.50;;;;;;5057820;28;19987;-81
2023/05/17 12:33:07;;;;;;;;;;;18.40;94.80;;;;;;5061468;28;19978;-81
2023/05/17 12:35:34;;;;;;;;;;;18.50;95.30;;;;;;5069711;28;19932;-81
2023/05/17 12:38:01;;;;;;;;;;;18.40;94.80;;;;;;5064393;28;19972;-81
2023/05/17 12:40:28;;;;;;;;;;;18.50;95.10;;;;;;5058752;28;19940;-80
2023/05/17 12:43:02;;;;;;;;;;;18.70;95.60;;;;;;5075144;28;20293;-81
2023/05/17 12:45:29;;;;;;;;;;;18.70;94.80;;;;;;5079357;28;19993;-80
2023/05/17 12:47:56;;;;;;;;;;;18.90;95.50;;;;;;5077706;28;20082;-81
2023/05/17 12:50:29;;;;;;;;;;;18.80;94.50;;;;;;5063550;28;19932;-80
2023/05/17 12:52:56;;;;;;;;;;;18.80;95.80;;;;;;5075470;28;20340;-81
2023/05/17 12:55:23;;;;;;;;;;;18.90;95.40;;;;;;5065674;28;19985;-81
2023/05/17 12:57:50;;;;;;;;;;;19.10;94.60;;;;;;5060155;28;20017;-81
2023/05/17 13:00:17;;;;;;;;;;;19.30;94.30;;;;;;5063000;28;19931;-81
2023/05/17 13:02:44;;;;;;;;;;;19.50;93.60;;;;;;5066977;28;20654;-82
2023/05/17 13:05:15;;;;;;;;;;;19.80;93.40;;;;;;5041040;28;20096;-82
2023/05/17 13:07:42;;;;;;;;;;;19.80;92.70;;;;;;5072787;28;19928;-81
2023/05/17 13:10:18;;;;;;;;;;;19.80;92.10;;;;;;5083490;28;19924;-82
2023/05/17 13:12:53;;;;;;;;;;;20.00;92.10;;;;;;5084851;28;19942;-81
2023/05/17 13:15:20;;;;;;;;;;;20.30;92.60;;;;;;5061990;28;19960;-82
2023/05/17 13:17:48;;;;;;;;;;;20.50;92.30;;;;;;5079099;28;19924;-81
2023/05/17 13:20:16;;;;;;;;;;;20.40;93.00;;;;;;5082254;28;19978;-81
2023/05/17 13:22:46;;;;;;;;;;;20.50;92.40;;;;;;5080181;28;19959;-81
2023/05/17 13:25:13;;;;;;;;;;;20.70;92.60;;;;;;5079029;28;20519;-82
2023/05/17 13:27:45;;;;;;;;;;;21.10;92.30;;;;;;5078670;28;19928;-82
2023/05/17 13:30:12;;;;;;;;;;;21.70;91.90;;;;;;5080579;28;19928;-82
2023/05/17 13:32:39;;;;;;;;;;;22.00;92.00;;;;;;5093397;28;20341;-80
2023/05/17 13:35:06;;;;;;;;;;;22.30;92.50;;;;;;5086261;28;19952;-79
2023/05/17 13:37:33;;;;;;;;;;;22.40;91.40;;;;;;5097006;28;20438;-79
2023/05/17 13:40:00;;;;;;;;;;;22.00;91.70;;;;;;5078125;28;20287;-80
2023/05/17 13:42:27;;;;;;;;;;;22.00;91.10;;;;;;5096722;28;19932;-81
2023/05/17 13:44:54;;;;;;;;;;;22.10;90.90;;;;;;5075332;28;19936;-81
2023/05/17 13:47:21;;;;;;;;;;;22.20;91.20;;;;;;5074016;28;19931;-82
2023/05/17 13:49:48;;;;;;;;;;;22.20;90.70;;;;;;5076579;28;19935;-81
2023/05/17 13:52:17;;;;;;;;;;;23.00;90.50;;;;;;5074500;28;20015;-81
2023/05/17 13:54:44;;;;;;;;;;;23.00;88.80;;;;;;5076775;28;20374;-80
2023/05/17 13:57:11;;;;;;;;;;;23.60;89.10;;;;;;5080076;28;19963;-81
2023/05/17 13:59:38;;;;;;;;;;;23.40;89.90;;;;;;5080070;28;20038;-81
2023/05/17 14:02:05;;;;;;;;;;;22.90;87.90;;;;;;5080489;28;19928;-81
2023/05/17 14:04:32;;;;;;;;;;;22.80;88.00;;;;;;5071912;28;20371;-81
2023/05/17 14:06:58;;;;;;;;;;;22.60;89.90;;;;;;5079053;28;19932;-81
2023/05/17 14:09:25;;;;;;;;;;;22.10;89.10;;;;;;5075747;28;20095;-80
2023/05/17 14:11:52;;;;;;;;;;;21.60;90.00;;;;;;5078003;28;19932;-80
2023/05/17 14:14:19;;;;;;;;;;;21.50;90.00;;;;;;5060235;28;19935;-80
2023/05/17 14:16:46;;;;;;;;;;;21.20;89.70;;;;;;5077367;28;19963;-80
2023/05/17 14:19:13;;;;;;;;;;;21.30;90.10;;;;;;5076908;28;19928;-80
2023/05/17 14:21:39;;;;;;;;;;;21.40;90.40;;;;;;5077427;28;20295;-81
2023/05/17 14:24:06;;;;;;;;;;;21.40;88.90;;;;;;5068815;28;20007;-81
2023/05/17 14:26:33;;;;;;;;;;;21.50;88.60;;;;;;5080148;28;19935;-81
2023/05/17 14:29:00;;;;;;;;;;;21.30;88.70;;;;;;5074564;28;20012;-81